Time;durP1;ratioP1;P1;durP2;ratioP2;P2;SDS_P1;SDS_P2;PMS_P1;PMS_P2;Temp;Humidity;BMP_temperature;BMP_pressure;BME280_temperature;BME280_humidity;BME280_pressure;Samples;Min_cycle;Max_cycle;Signal;HPM_P1;HPM_P2
2023/01/20 00:02:11;;;;;;;29.40;27.48;;;-1.50;97.80;;;;;;5092538;28;20093;-77
2023/01/20 00:04:37;;;;;;;28.60;26.60;;;-1.40;97.70;;;;;;5080214;28;20028;-78
2023/01/20 00:07:02;;;;;;;27.15;24.88;;;-1.40;96.70;;;;;;5097530;28;20043;-78
2023/01/20 00:09:28;;;;;;;26.48;24.52;;;-1.40;96.60;;;;;;5100687;28;20031;-78
2023/01/20 00:11:54;;;;;;;26.75;24.83;;;-1.40;96.60;;;;;;5095810;28;20449;-77
2023/01/20 00:14:20;;;;;;;28.67;26.52;;;-1.50;96.50;;;;;;5093746;28;20029;-77
2023/01/20 00:16:45;;;;;;;27.58;25.23;;;-1.50;97.10;;;;;;5093940;28;20042;-79
2023/01/20 00:19:13;;;;;;;30.30;27.58;;;-1.70;96.50;;;;;;5091915;28;20089;-77
2023/01/20 00:21:40;;;;;;;27.92;26.13;;;-1.50;96.90;;;;;;5100030;28;20024;-77
2023/01/20 00:24:05;;;;;;;30.25;27.98;;;-1.50;96.90;;;;;;5090709;28;20035;-79
2023/01/20 00:26:32;;;;;;;30.95;28.98;;;-1.50;97.30;;;;;;5093088;28;20032;-78
2023/01/20 00:28:57;;;;;;;30.33;28.60;;;-1.40;97.60;;;;;;5092822;28;20034;-78
2023/01/20 00:31:25;;;;;;;32.33;29.92;;;-1.50;97.50;;;;;;5091175;28;20124;-78
2023/01/20 00:33:53;;;;;;;33.25;31.02;;;-1.50;97.60;;;;;;5099336;28;20032;-77
2023/01/20 00:36:20;;;;;;;31.52;29.25;;;-1.60;97.50;;;;;;5094906;28;20081;-77
2023/01/20 00:38:46;;;;;;;29.88;27.35;;;-1.60;97.60;;;;;;5099825;28;20436;-79
2023/01/20 00:41:14;;;;;;;34.47;31.77;;;-1.60;97.60;;;;;;5097276;28;20035;-76
2023/01/20 00:43:39;;;;;;;35.80;32.83;;;-1.70;97.90;;;;;;5076349;28;20024;-77
2023/01/20 00:46:06;;;;;;;35.50;32.85;;;-1.60;98.70;;;;;;5098102;28;20031;-77
2023/01/20 00:48:32;;;;;;;32.55;30.23;;;-1.40;98.80;;;;;;5088560;28;20037;-78
2023/01/20 00:50:58;;;;;;;33.85;31.35;;;-1.40;98.10;;;;;;5092691;28;20115;-79
2023/01/20 00:53:24;;;;;;;35.22;32.63;;;-1.40;98.10;;;;;;5093475;28;20134;-77
2023/01/20 00:55:50;;;;;;;40.97;38.33;;;-1.70;98.30;;;;;;5093941;28;20608;-77
2023/01/20 00:58:15;;;;;;;39.63;36.55;;;-1.90;99.50;;;;;;5096643;28;20063;-78
2023/01/20 01:00:41;;;;;;;37.95;35.42;;;-1.80;99.50;;;;;;5091149;28;20056;-77
2023/01/20 01:03:09;;;;;;;36.92;34.65;;;-1.70;99.60;;;;;;5096953;28;20039;-78
2023/01/20 01:05:35;;;;;;;36.15;33.75;;;-1.70;99.20;;;;;;5091128;28;20028;-80
2023/01/20 01:08:01;;;;;;;37.30;35.05;;;-1.60;99.40;;;;;;5094056;28;20019;-77
2023/01/20 01:10:26;;;;;;;37.45;34.75;;;-1.60;99.60;;;;;;5092066;28;20020;-77
2023/01/20 01:12:52;;;;;;;41.13;37.85;;;-1.60;99.40;;;;;;5094577;28;20100;-77
2023/01/20 01:15:18;;;;;;;36.22;33.63;;;-1.70;99.40;;;;;;5092216;28;20401;-78
2023/01/20 01:17:43;;;;;;;44.53;41.45;;;-1.90;99.70;;;;;;5094573;28;20036;-77
2023/01/20 01:20:11;;;;;;;42.53;39.38;;;-1.90;99.70;;;;;;5094845;28;20634;-79
2023/01/20 01:22:37;;;;;;;44.28;41.15;;;-1.80;99.90;;;;;;5092072;28;20057;-78
2023/01/20 01:25:02;;;;;;;42.00;39.47;;;-1.80;99.90;;;;;;5098908;28;20115;-79
2023/01/20 01:27:28;;;;;;;44.22;40.92;;;-1.70;99.90;;;;;;5100903;28;20513;-77
2023/01/20 01:29:54;;;;;;;40.92;38.25;;;-1.60;99.90;;;;;;5107343;28;20043;-77
2023/01/20 01:32:21;;;;;;;44.92;41.83;;;-1.50;99.90;;;;;;5102714;28;20032;-77
2023/01/20 01:34:46;;;;;;;45.95;43.00;;;-1.60;99.90;;;;;;5094700;28;20496;-78
2023/01/20 01:37:12;;;;;;;41.95;39.05;;;-1.70;99.90;;;;;;5099477;28;20036;-77
2023/01/20 01:39:38;;;;;;;46.08;43.03;;;-1.80;99.90;;;;;;5100225;28;20036;-79
2023/01/20 01:42:13;;;;;;;44.05;41.05;;;-1.90;99.90;;;;;;5094531;28;20116;-81
2023/01/20 01:45:10;;;;;;;44.03;40.67;;;-1.90;99.90;;;;;;5080173;28;20149;-78
2023/01/20 01:47:45;;;;;;;42.05;38.85;;;-2.00;99.90;;;;;;5095868;28;20056;-78
2023/01/20 01:50:33;;;;;;;40.13;36.92;;;-2.00;99.90;;;;;;5099663;28;20537;-77
2023/01/20 01:52:59;;;;;;;43.00;39.80;;;-1.80;99.90;;;;;;5085818;28;20382;-79
2023/01/20 01:55:32;;;;;;;42.92;40.03;;;-1.70;99.90;;;;;;5099079;28;20035;-78
2023/01/20 01:58:00;;;;;;;42.58;39.65;;;-1.80;99.90;;;;;;5096606;28;20049;-78
2023/01/20 02:00:26;;;;;;;45.65;43.00;;;-1.80;99.90;;;;;;5104330;28;20027;-78
2023/01/20 02:02:53;;;;;;;51.65;47.53;;;-1.80;99.90;;;;;;5127994;27;20125;-80
2023/01/20 02:05:19;;;;;;;59.08;56.03;;;-1.90;99.90;;;;;;5101567;28;20607;-77
2023/01/20 02:07:47;;;;;;;66.93;62.80;;;-1.90;99.90;;;;;;5098603;28;20401;-78
2023/01/20 02:10:14;;;;;;;65.38;62.22;;;-1.90;99.90;;;;;;5099172;28;20019;-79
2023/01/20 02:12:41;;;;;;;70.20;65.25;;;-1.90;99.90;;;;;;5099975;28;20052;-78
2023/01/20 02:15:07;;;;;;;65.20;61.35;;;-2.00;99.90;;;;;;5094289;28;20510;-80
2023/01/20 02:18:11;;;;;;;76.38;72.20;;;-1.90;99.90;;;;;;5101396;28;20042;-77
2023/01/20 02:21:04;;;;;;;59.50;55.35;;;-2.20;99.90;;;;;;5094429;28;20044;-78
2023/01/20 02:23:45;;;;;;;47.97;44.80;;;-2.40;99.90;;;;;;5102452;28;20024;-79
2023/01/20 02:26:42;;;;;;;43.08;40.17;;;-2.30;99.90;;;;;;5099068;28;20106;-79
2023/01/20 02:29:36;;;;;;;43.22;40.17;;;-2.10;99.90;;;;;;5093301;28;20032;-78
2023/01/20 02:32:13;;;;;;;44.88;42.05;;;-2.10;99.90;;;;;;5096965;28;20453;-79
2023/01/20 02:34:52;;;;;;;49.22;46.00;;;-2.10;99.90;;;;;;5098767;28;20111;-79
2023/01/20 02:37:25;;;;;;;51.22;48.22;;;-2.10;99.90;;;;;;5095182;28;20122;-79
2023/01/20 02:40:12;;;;;;;61.78;56.90;;;-2.10;99.90;;;;;;5101464;28;20122;-78
2023/01/20 02:42:45;;;;;;;51.38;47.58;;;-2.20;99.90;;;;;;5098100;28;20551;-78
2023/01/20 02:45:26;;;;;;;52.70;49.13;;;-2.30;99.90;;;;;;5094209;28;20035;-77
2023/01/20 02:48:05;;;;;;;48.63;45.47;;;-2.50;99.90;;;;;;5103226;28;20028;-78
2023/01/20 02:50:41;;;;;;;47.15;43.92;;;-2.40;99.90;;;;;;5093766;28;20537;-77
2023/01/20 02:53:08;;;;;;;54.00;50.30;;;-2.30;99.90;;;;;;5096978;28;20027;-77
2023/01/20 02:55:49;;;;;;;58.75;55.13;;;-2.30;99.90;;;;;;5092421;28;20427;-78
2023/01/20 02:58:18;;;;;;;67.85;64.20;;;-2.50;99.90;;;;;;5095758;28;20032;-79
2023/01/20 03:00:57;;;;;;;76.43;71.55;;;-2.40;99.90;;;;;;5101386;28;20016;-78
2023/01/20 03:03:31;;;;;;;63.65;59.78;;;-2.30;99.90;;;;;;5102582;28;20040;-78
2023/01/20 03:06:00;;;;;;;62.58;58.75;;;-2.30;99.90;;;;;;5096147;28;20023;-79
2023/01/20 03:08:29;;;;;;;62.13;58.45;;;-2.30;99.90;;;;;;5096389;28;20135;-78
2023/01/20 03:10:59;;;;;;;58.33;54.65;;;-2.20;99.90;;;;;;5101395;28;20157;-80
2023/01/20 03:13:38;;;;;;;60.50;56.75;;;-2.30;99.90;;;;;;5093551;28;21300;-80
2023/01/20 03:16:10;;;;;;;62.92;59.35;;;-2.20;99.90;;;;;;5099152;28;20057;-77
2023/01/20 03:18:36;;;;;;;52.75;48.88;;;-2.30;99.90;;;;;;5093912;28;20048;-78
2023/01/20 03:21:04;;;;;;;53.85;50.35;;;-2.50;99.90;;;;;;5096900;28;20039;-77
2023/01/20 03:23:34;;;;;;;67.28;63.65;;;-2.60;99.90;;;;;;5098984;28;20348;-80
2023/01/20 03:26:05;;;;;;;65.07;61.47;;;-2.60;99.90;;;;;;5081769;28;20050;-80
2023/01/20 03:28:31;;;;;;;65.45;61.75;;;-2.60;99.90;;;;;;5096188;28;20047;-80
2023/01/20 03:31:00;;;;;;;73.18;69.28;;;-2.50;99.90;;;;;;5093830;28;20665;-79
2023/01/20 03:33:26;;;;;;;83.53;79.10;;;-2.50;99.90;;;;;;5101024;28;20100;-78
2023/01/20 03:35:53;;;;;;;83.75;79.78;;;-2.60;99.90;;;;;;5082723;28;20028;-80
2023/01/20 03:38:19;;;;;;;79.13;74.78;;;-2.50;99.90;;;;;;5094171;28;20040;-78
2023/01/20 03:41:13;;;;;;;71.28;67.82;;;-2.50;99.90;;;;;;5097631;28;20031;-78
2023/01/20 03:44:08;;;;;;;67.07;63.97;;;-2.50;99.90;;;;;;5085520;28;20047;-78
2023/01/20 03:47:15;;;;;;;64.90;61.30;;;-2.50;99.90;;;;;;5066634;28;20051;-80
2023/01/20 03:49:54;;;;;;;47.28;44.53;;;-2.50;99.90;;;;;;5077890;28;20025;-79
2023/01/20 03:52:42;;;;;;;64.13;59.75;;;-2.50;99.90;;;;;;5094303;28;20051;-77
2023/01/20 03:55:23;;;;;;;62.10;57.60;;;-2.60;99.90;;;;;;5088686;28;20572;-77
2023/01/20 03:58:08;;;;;;;60.60;56.95;;;-2.60;99.90;;;;;;5074548;28;20081;-78
2023/01/20 04:00:37;;;;;;;65.07;61.78;;;-2.70;99.90;;;;;;5081555;28;20036;-78
2023/01/20 04:03:10;;;;;;;88.45;83.93;;;-2.60;99.90;;;;;;5084995;28;20028;-78
2023/01/20 04:05:37;;;;;;;90.45;86.57;;;-2.70;99.90;;;;;;5090416;28;20123;-79
2023/01/20 04:08:07;;;;;;;102.30;97.68;;;-2.70;99.90;;;;;;5082412;28;20028;-77
2023/01/20 04:10:37;;;;;;;100.70;95.70;;;-2.60;99.90;;;;;;5080151;28;20012;-79
2023/01/20 04:13:03;;;;;;;101.95;97.40;;;-2.60;99.90;;;;;;5079935;28;20028;-77
2023/01/20 04:15:34;;;;;;;100.57;95.95;;;-2.60;99.90;;;;;;5087409;28;20043;-79
2023/01/20 04:18:29;;;;;;;99.53;94.13;;;-2.60;99.90;;;;;;5079758;28;20549;-77
2023/01/20 04:21:02;;;;;;;65.85;61.90;;;-2.60;99.90;;;;;;5065946;28;20047;-78
2023/01/20 04:23:37;;;;;;;98.30;93.07;;;-2.70;99.90;;;;;;5082949;28;20040;-77
2023/01/20 04:26:03;;;;;;;103.05;97.65;;;-2.60;99.90;;;;;;5074877;28;20028;-78
2023/01/20 04:28:29;;;;;;;98.53;93.97;;;-2.60;99.90;;;;;;5082661;28;20414;-78
2023/01/20 04:30:54;;;;;;;107.22;102.25;;;-2.60;99.90;;;;;;5080109;28;20560;-78
2023/01/20 04:33:20;;;;;;;108.45;103.00;;;-2.50;99.90;;;;;;5080877;28;20040;-77
2023/01/20 04:35:46;;;;;;;106.90;101.97;;;-2.40;99.90;;;;;;5081917;28;20032;-78
2023/01/20 04:38:11;;;;;;;108.35;102.35;;;-2.30;99.90;;;;;;5093893;28;20116;-79
2023/01/20 04:40:37;;;;;;;97.18;92.47;;;-2.30;99.90;;;;;;5089164;28;20376;-77
2023/01/20 04:43:02;;;;;;;106.43;101.57;;;-2.30;99.90;;;;;;5080300;28;20067;-79
2023/01/20 04:45:28;;;;;;;127.55;120.55;;;-2.30;99.90;;;;;;5079892;28;20055;-76
2023/01/20 04:47:54;;;;;;;123.72;118.00;;;-2.30;99.90;;;;;;5084788;28;20161;-76
2023/01/20 04:50:20;;;;;;;113.72;108.55;;;-2.30;99.90;;;;;;5079780;28;20611;-78
2023/01/20 04:52:46;;;;;;;108.53;103.63;;;-2.30;99.90;;;;;;5074599;28;20389;-77
2023/01/20 04:55:12;;;;;;;106.55;100.88;;;-2.20;99.90;;;;;;5086297;28;20039;-77
2023/01/20 04:57:38;;;;;;;113.60;108.03;;;-2.20;99.90;;;;;;5080522;28;20042;-80
2023/01/20 05:00:06;;;;;;;112.30;107.45;;;-2.00;99.90;;;;;;5081155;28;20035;-78
2023/01/20 05:02:31;;;;;;;106.53;101.72;;;-2.10;99.90;;;;;;5083644;28;20530;-78
2023/01/20 05:04:57;;;;;;;137.07;130.77;;;-2.00;99.90;;;;;;5091598;28;20035;-78
2023/01/20 05:07:23;;;;;;;110.40;105.35;;;-2.00;99.90;;;;;;5082592;28;20043;-78
2023/01/20 05:09:50;;;;;;;105.07;100.35;;;-2.00;99.90;;;;;;5081489;28;20039;-78
2023/01/20 05:12:15;;;;;;;90.05;85.68;;;-2.00;99.90;;;;;;5068614;28;20578;-78
2023/01/20 05:14:41;;;;;;;90.10;85.80;;;-1.90;99.90;;;;;;5062048;28;20033;-80
2023/01/20 05:17:07;;;;;;;76.47;72.90;;;-2.00;99.90;;;;;;5094541;28;20063;-78
2023/01/20 05:19:32;;;;;;;79.25;73.90;;;-2.10;99.90;;;;;;5075803;28;20459;-77
2023/01/20 05:21:59;;;;;;;104.40;99.32;;;-2.20;99.90;;;;;;5086683;28;20134;-79
2023/01/20 05:24:26;;;;;;;94.22;89.82;;;-2.00;99.90;;;;;;5080045;28;20474;-81
2023/01/20 05:26:52;;;;;;;77.38;73.53;;;-1.90;99.90;;;;;;5081159;28;20036;-84
2023/01/20 05:29:18;;;;;;;75.60;71.05;;;-2.00;99.90;;;;;;5085877;28;20020;-83
2023/01/20 05:31:46;;;;;;;76.57;72.38;;;-1.90;99.90;;;;;;5079247;28;20043;-85
2023/01/20 05:34:12;;;;;;;88.20;82.00;;;-1.90;99.90;;;;;;5079464;28;20040;-86
2023/01/20 05:36:37;;;;;;;88.03;82.53;;;-1.90;99.90;;;;;;5088599;28;20503;-85
2023/01/20 05:39:03;;;;;;;72.03;68.15;;;-1.90;99.90;;;;;;5085357;28;20043;-81
2023/01/20 05:41:29;;;;;;;79.60;75.43;;;-1.80;99.90;;;;;;5097795;28;20051;-77
2023/01/20 05:43:55;;;;;;;90.88;85.80;;;-1.90;99.90;;;;;;5087899;28;20108;-80
2023/01/20 05:46:20;;;;;;;86.43;82.35;;;-1.90;99.90;;;;;;5096910;28;20039;-80
2023/01/20 05:48:46;;;;;;;83.53;79.25;;;-1.90;99.90;;;;;;5095216;28;20038;-81
2023/01/20 05:51:12;;;;;;;86.53;81.65;;;-1.90;99.90;;;;;;5078557;28;20530;-80
2023/01/20 05:53:38;;;;;;;66.82;62.72;;;-1.80;99.90;;;;;;5086797;28;20040;-81
2023/01/20 05:56:05;;;;;;;86.65;82.13;;;-1.90;99.90;;;;;;5082571;28;20036;-82
2023/01/20 05:58:33;;;;;;;77.75;74.10;;;-1.80;99.90;;;;;;5088771;28;20024;-80
2023/01/20 06:01:06;;;;;;;88.05;83.72;;;-1.80;99.90;;;;;;5094879;28;20048;-82
2023/01/20 06:03:33;;;;;;;78.28;74.45;;;-2.00;99.90;;;;;;5100199;28;20393;-83
2023/01/20 06:06:03;;;;;;;73.70;70.03;;;-1.90;99.90;;;;;;5070358;28;20027;-81
2023/01/20 06:08:29;;;;;;;;;;;-2.00;99.90;;;;;;5094620;28;20111;-81
2023/01/20 06:10:55;;;;;;;31.77;29.98;;;-2.00;99.90;;;;;;5091827;28;20338;-83
2023/01/20 06:13:20;;;;;;;47.28;44.47;;;-2.00;99.90;;;;;;5087972;28;20028;-82
2023/01/20 06:15:53;;;;;;;59.53;56.35;;;-2.00;99.90;;;;;;5096565;28;20020;-81
2023/01/20 06:18:20;;;;;;;54.75;51.95;;;-1.90;99.90;;;;;;5084995;28;20059;-79
2023/01/20 06:20:46;;;;;;;76.10;72.32;;;-2.00;99.90;;;;;;5097139;28;20392;-79
2023/01/20 06:23:12;;;;;;;85.43;81.60;;;-2.00;99.90;;;;;;5097162;28;20051;-79
2023/01/20 06:25:38;;;;;;;92.45;88.22;;;-2.00;99.90;;;;;;5095138;28;20035;-82
2023/01/20 06:28:04;;;;;;;90.65;86.43;;;-1.90;99.90;;;;;;5099233;28;20040;-83
2023/01/20 06:30:31;;;;;;;86.03;81.75;;;-2.10;99.90;;;;;;5084411;28;20025;-83
2023/01/20 06:32:57;;;;;;;95.70;91.40;;;-2.20;99.90;;;;;;5102662;28;20024;-83
2023/01/20 06:35:23;;;;;;;92.40;87.88;;;-2.20;99.90;;;;;;5095991;28;20031;-84
2023/01/20 06:37:49;;;;;;;101.43;97.00;;;-2.20;99.90;;;;;;5099456;28;20023;-84
2023/01/20 06:40:15;;;;;;;81.80;77.95;;;-2.10;99.90;;;;;;5098872;28;20049;-80
2023/01/20 06:42:41;;;;;;;100.40;95.00;;;-2.20;99.90;;;;;;5090355;28;20025;-73
2023/01/20 06:45:08;;;;;;;83.38;79.50;;;-2.20;99.90;;;;;;5090289;28;20034;-82
2023/01/20 06:47:34;;;;;;;108.63;103.70;;;-2.20;99.90;;;;;;5088475;28;20103;-83
2023/01/20 06:50:00;;;;;;;100.30;95.72;;;-2.30;99.90;;;;;;5097176;28;20108;-81
2023/01/20 06:52:27;;;;;;;108.63;104.03;;;-2.30;99.90;;;;;;5086235;28;20154;-82
2023/01/20 06:54:53;;;;;;;103.40;98.10;;;-2.30;99.90;;;;;;5094554;28;20096;-81
2023/01/20 06:57:19;;;;;;;106.82;102.07;;;-2.50;99.90;;;;;;5099678;28;20123;-83
2023/01/20 06:59:44;;;;;;;122.53;117.07;;;-2.50;99.90;;;;;;5096475;28;20278;-83
2023/01/20 07:02:11;;;;;;;120.97;115.47;;;-2.40;99.90;;;;;;5090845;28;20032;-81
2023/01/20 07:04:37;;;;;;;109.75;104.85;;;-2.30;99.90;;;;;;5085060;28;20055;-82
2023/01/20 07:07:02;;;;;;;112.68;107.45;;;-2.30;99.90;;;;;;5090520;28;20537;-81
2023/01/20 07:09:28;;;;;;;116.25;110.93;;;-2.20;99.90;;;;;;5091385;28;20496;-80
2023/01/20 07:11:54;;;;;;;109.47;104.15;;;-2.10;99.90;;;;;;5087689;28;20118;-81
2023/01/20 07:14:20;;;;;;;112.88;107.25;;;-2.20;99.90;;;;;;5096649;28;20067;-81
2023/01/20 07:16:45;;;;;;;115.80;110.25;;;-2.20;99.90;;;;;;5087270;28;20040;-80
2023/01/20 07:19:11;;;;;;;118.72;113.47;;;-2.20;99.90;;;;;;5081264;28;20071;-81
2023/01/20 07:21:37;;;;;;;117.68;111.97;;;-2.30;99.90;;;;;;5085423;28;20060;-81
2023/01/20 07:24:05;;;;;;;118.95;113.13;;;-2.30;99.90;;;;;;5086172;28;20488;-82
2023/01/20 07:26:31;;;;;;;114.97;109.93;;;-2.20;99.90;;;;;;5083968;28;20033;-83
2023/01/20 07:28:58;;;;;;;119.97;113.93;;;-2.20;99.90;;;;;;5082590;28;20025;-81
2023/01/20 07:31:26;;;;;;;115.38;110.22;;;-2.10;99.90;;;;;;5097339;28;20032;-82
2023/01/20 07:33:54;;;;;;;106.63;101.28;;;-2.00;99.90;;;;;;5082689;28;20124;-82
2023/01/20 07:36:20;;;;;;;103.68;98.70;;;-2.00;99.90;;;;;;5082672;28;20051;-81
2023/01/20 07:38:47;;;;;;;115.18;110.05;;;-2.00;99.90;;;;;;5090596;28;20032;-82
2023/01/20 07:41:17;;;;;;;121.32;116.05;;;-2.00;99.90;;;;;;5095976;28;20024;-81
2023/01/20 07:43:48;;;;;;;120.85;115.15;;;-2.10;99.90;;;;;;5082873;28;20124;-82
2023/01/20 07:46:14;;;;;;;123.68;117.15;;;-2.00;99.90;;;;;;5083280;28;20031;-81
2023/01/20 07:48:40;;;;;;;103.90;99.00;;;-1.90;99.90;;;;;;5082835;28;20103;-81
2023/01/20 07:51:11;;;;;;;159.73;152.75;;;-2.00;99.90;;;;;;5081716;28;20020;-82
2023/01/20 07:53:45;;;;;;;148.80;142.27;;;-1.90;99.90;;;;;;5087259;28;20029;-81
2023/01/20 07:56:14;;;;;;;105.10;100.25;;;-1.80;99.90;;;;;;5087618;28;20035;-80
2023/01/20 07:58:43;;;;;;;153.00;145.93;;;-1.80;99.90;;;;;;5082168;28;20669;-81
2023/01/20 08:01:15;;;;;;;166.75;159.10;;;-1.80;99.90;;;;;;5093505;28;20132;-82
2023/01/20 08:03:41;;;;;;;152.77;146.18;;;-1.80;99.90;;;;;;5080901;28;20035;-81
2023/01/20 08:06:09;;;;;;;204.27;195.32;;;-1.80;99.90;;;;;;5048604;28;20028;-80
2023/01/20 08:08:35;;;;;;;139.50;133.13;;;-1.60;99.90;;;;;;5065140;28;20114;-80
2023/01/20 08:11:01;;;;;;;156.50;149.70;;;-1.50;99.90;;;;;;5080762;28;20609;-80
2023/01/20 08:13:28;;;;;;;116.50;111.47;;;-1.40;99.90;;;;;;5062400;28;20093;-80
2023/01/20 08:15:54;;;;;;;135.20;129.25;;;-1.30;99.90;;;;;;5083558;28;20027;-81
2023/01/20 08:18:20;;;;;;;116.30;110.47;;;-1.20;99.90;;;;;;5065800;28;20046;-80
2023/01/20 08:20:46;;;;;;;130.45;124.88;;;-1.20;99.90;;;;;;5083424;28;20594;-80
2023/01/20 08:23:12;;;;;;;125.30;119.53;;;-1.30;99.90;;;;;;5097701;28;20047;-81
2023/01/20 08:25:37;;;;;;;127.88;121.65;;;-1.30;99.90;;;;;;5079963;28;20051;-81
2023/01/20 08:28:03;;;;;;;116.00;110.43;;;-1.20;99.90;;;;;;5092032;28;20027;-81
2023/01/20 08:30:28;;;;;;;139.13;132.40;;;-1.20;99.90;;;;;;5089269;28;20035;-80
2023/01/20 08:32:55;;;;;;;138.35;132.43;;;-1.30;99.90;;;;;;5090995;28;20040;-80
2023/01/20 08:35:20;;;;;;;126.60;120.55;;;-1.20;99.90;;;;;;5098969;28;20035;-80
2023/01/20 08:37:46;;;;;;;149.55;142.77;;;-1.10;99.90;;;;;;5091653;28;20509;-82
2023/01/20 08:40:12;;;;;;;141.40;134.48;;;-1.00;99.90;;;;;;5097563;28;20054;-80
2023/01/20 08:42:38;;;;;;;155.68;148.93;;;-0.90;99.90;;;;;;5088296;28;20078;-81
2023/01/20 08:45:05;;;;;;;131.68;125.93;;;-0.90;99.90;;;;;;5071580;28;20032;-81
2023/01/20 08:47:43;;;;;;;176.00;168.10;;;-0.90;99.90;;;;;;5088002;28;20028;-80
2023/01/20 08:50:10;;;;;;;127.57;120.88;;;-0.90;99.90;;;;;;5068097;28;20127;-80
2023/01/20 08:52:35;;;;;;;131.00;124.72;;;-0.80;99.90;;;;;;5088882;28;20520;-80
2023/01/20 08:55:01;;;;;;;150.30;143.27;;;-0.70;99.90;;;;;;5079963;28;20068;-81
2023/01/20 08:57:27;;;;;;;133.18;126.63;;;-0.70;99.90;;;;;;5084286;28;20067;-81
2023/01/20 08:59:53;;;;;;;147.80;140.13;;;-0.70;99.90;;;;;;5084740;28;20051;-80
2023/01/20 09:02:19;;;;;;;150.10;143.40;;;-0.60;99.90;;;;;;5092266;28;20063;-80
2023/01/20 09:04:45;;;;;;;142.93;136.45;;;-0.50;99.90;;;;;;5084364;28;20065;-80
2023/01/20 09:07:11;;;;;;;180.60;173.38;;;-0.60;99.90;;;;;;5078457;28;20029;-79
2023/01/20 09:09:38;;;;;;;115.43;110.22;;;-0.40;99.90;;;;;;5089595;28;20019;-81
2023/01/20 09:12:04;;;;;;;250.63;240.32;;;-0.40;99.90;;;;;;5083656;28;20401;-79
2023/01/20 09:14:30;;;;;;;120.97;115.57;;;-0.50;99.90;;;;;;5082725;28;20107;-79
2023/01/20 09:16:56;;;;;;;155.85;149.23;;;-0.70;99.90;;;;;;5085212;28;20425;-80
2023/01/20 09:19:22;;;;;;;162.13;154.90;;;-0.70;99.90;;;;;;5085020;28;20085;-78
2023/01/20 09:21:47;;;;;;;130.93;125.60;;;-0.80;99.90;;;;;;5088052;28;20044;-79
2023/01/20 09:24:13;;;;;;;151.65;144.55;;;-0.80;99.90;;;;;;5073598;28;20033;-79
2023/01/20 09:26:39;;;;;;;140.27;133.80;;;-0.80;99.90;;;;;;5095612;28;20105;-79
2023/01/20 09:29:09;;;;;;;266.88;253.45;;;-0.60;99.90;;;;;;5086415;28;20063;-79
2023/01/20 09:31:37;;;;;;;154.73;146.02;;;-0.70;99.90;;;;;;5078986;28;20020;-79
2023/01/20 09:34:03;;;;;;;166.43;158.00;;;-0.50;99.90;;;;;;5081450;28;20046;-80
2023/01/20 09:36:28;;;;;;;134.30;128.00;;;-0.30;99.90;;;;;;5072231;28;20397;-79
2023/01/20 09:44:55;;;;;;;140.98;134.23;;;0.00;99.90;;;;;;5086926;28;20031;-79
2023/01/20 09:47:26;;;;;;;138.57;132.43;;;0.00;99.90;;;;;;5088459;28;20020;-80
2023/01/20 09:55:47;;;;;;;110.47;105.55;;;-0.80;99.90;;;;;;5077012;28;20266;-80
2023/01/20 09:58:32;;;;;;;91.25;86.82;;;-0.70;99.90;;;;;;5095575;28;20048;-79
2023/01/20 10:01:11;;;;;;;99.50;94.50;;;-0.50;99.90;;;;;;5086740;28;20554;-79
2023/01/20 10:03:59;;;;;;;110.72;105.43;;;-0.60;99.90;;;;;;5093463;28;20123;-79
2023/01/20 10:06:40;;;;;;;132.48;125.93;;;-0.30;99.90;;;;;;5100230;28;20032;-79
2023/01/20 10:09:20;;;;;;;104.65;99.13;;;-0.20;99.90;;;;;;5094474;28;20043;-80
2023/01/20 10:11:50;;;;;;;98.45;94.15;;;-0.50;99.90;;;;;;5081723;28;20323;-80
2023/01/20 10:14:36;;;;;;;106.57;101.78;;;-0.50;99.90;;;;;;5081453;28;20028;-79
2023/01/20 10:17:25;;;;;;;72.75;69.20;;;-0.60;99.90;;;;;;5083478;28;20041;-79
2023/01/20 10:19:58;;;;;;;68.68;65.28;;;-0.70;99.90;;;;;;5092546;28;20131;-80
2023/01/20 10:22:49;;;;;;;80.20;76.20;;;-0.70;99.90;;;;;;5078038;28;20488;-79
2023/01/20 10:25:27;;;;;;;70.15;66.85;;;-0.60;99.90;;;;;;5091686;28;20035;-79
2023/01/20 10:27:57;;;;;;;91.43;87.38;;;-0.50;99.90;;;;;;5083978;28;20059;-80
2023/01/20 10:30:29;;;;;;;81.50;77.82;;;-0.30;99.90;;;;;;5084444;28;20032;-79
2023/01/20 10:33:04;;;;;;;153.20;146.75;;;-0.40;99.90;;;;;;5086704;28;20090;-80
2023/01/20 10:35:36;;;;;;;71.78;68.43;;;0.00;99.90;;;;;;5084141;28;20494;-80
2023/01/20 10:38:06;;;;;;;59.85;56.63;;;-0.20;99.90;;;;;;5077849;28;20177;-79
2023/01/20 10:40:38;;;;;;;64.80;61.17;;;-0.20;99.90;;;;;;5081783;28;20517;-80
2023/01/20 10:43:14;;;;;;;51.50;48.67;;;0.00;99.90;;;;;;5096304;28;20172;-79
2023/01/20 10:46:16;;;;;;;97.45;93.10;;;0.10;99.90;;;;;;5084589;28;20036;-79
2023/01/20 10:48:59;;;;;;;71.20;67.15;;;0.30;99.90;;;;;;5081042;28;20028;-79
2023/01/20 10:51:37;;;;;;;65.10;62.03;;;0.50;99.90;;;;;;5090864;28;20025;-79
2023/01/20 10:54:50;;;;;;;87.43;80.70;;;0.60;99.80;;;;;;5094886;28;20032;-79
2023/01/20 10:57:16;;;;;;;58.22;55.05;;;0.90;99.20;;;;;;5012487;28;20025;-79
2023/01/20 10:59:49;;;;;;;85.72;81.72;;;0.90;98.50;;;;;;5056438;28;20047;-80
2023/01/20 11:02:21;;;;;;;93.25;88.90;;;0.90;98.40;;;;;;5078452;28;20040;-80
2023/01/20 11:04:54;;;;;;;79.07;75.22;;;1.00;99.10;;;;;;5084568;28;20098;-80
2023/01/20 11:07:19;;;;;;;63.20;59.63;;;1.00;99.90;;;;;;5081014;28;20032;-80
2023/01/20 11:09:47;;;;;;;76.47;72.38;;;0.70;99.90;;;;;;5103752;27;20031;-80
2023/01/20 11:12:20;;;;;;;75.15;71.57;;;0.50;99.90;;;;;;5086640;28;20086;-79
2023/01/20 11:14:47;;;;;;;63.20;59.88;;;0.80;99.90;;;;;;5083923;28;20059;-80
2023/01/20 11:17:16;;;;;;;127.85;121.75;;;0.90;99.90;;;;;;5079921;28;20029;-80
2023/01/20 11:19:48;;;;;;;128.38;122.65;;;0.90;99.20;;;;;;5083283;28;20060;-80
2023/01/20 11:22:19;;;;;;;;;;;1.10;99.10;;;;;;5087893;28;20147;-81
2023/01/20 11:24:45;;;;;;;41.90;39.35;;;1.30;99.90;;;;;;5086510;28;19916;-79
2023/01/20 11:27:20;;;;;;;59.65;56.80;;;1.10;99.80;;;;;;5089942;28;20027;-79
2023/01/20 11:29:56;;;;;;;66.38;63.10;;;1.20;99.90;;;;;;5079064;28;20031;-78
2023/01/20 11:32:38;;;;;;;54.88;51.83;;;1.40;98.40;;;;;;5079759;28;20605;-80
2023/01/20 11:35:24;;;;;;;51.75;49.10;;;1.30;98.10;;;;;;5081397;28;20038;-80
2023/01/20 11:37:50;;;;;;;40.75;38.78;;;1.50;98.20;;;;;;5084070;28;20050;-80
2023/01/20 11:40:24;;;;;;;40.70;38.13;;;1.30;96.10;;;;;;5099604;28;20067;-80
2023/01/20 11:42:52;;;;;;;46.70;44.13;;;1.40;96.50;;;;;;5098859;28;20565;-81
2023/01/20 11:45:29;;;;;;;44.25;41.50;;;1.20;95.80;;;;;;5067909;28;20039;-81
2023/01/20 11:47:59;;;;;;;51.00;47.70;;;1.00;96.80;;;;;;5089754;28;20497;-81
2023/01/20 11:50:35;;;;;;;75.32;71.15;;;1.20;96.50;;;;;;5093858;28;20028;-81
2023/01/20 11:53:22;;;;;;;33.30;30.73;;;1.20;95.60;;;;;;5082982;28;20032;-81
2023/01/20 11:56:04;;;;;;;33.85;31.45;;;1.10;94.20;;;;;;5091450;28;20040;-81
2023/01/20 11:58:54;;;;;;;43.42;41.53;;;1.10;93.90;;;;;;5085451;28;20028;-81
2023/01/20 12:01:47;;;;;;;36.42;33.22;;;1.20;93.90;;;;;;5093084;28;20032;-82
2023/01/20 12:04:16;;;;;;;34.42;32.42;;;1.30;94.20;;;;;;5104915;28;20032;-81
2023/01/20 12:07:09;;;;;;;34.97;32.80;;;1.40;93.80;;;;;;5090805;28;20064;-81
2023/01/20 12:09:42;;;;;;;49.20;44.08;;;1.50;94.80;;;;;;5084532;28;20025;-81
2023/01/20 12:12:50;;;;;;;44.08;41.47;;;1.50;93.30;;;;;;5087447;28;20043;-81
2023/01/20 12:15:21;;;;;;;31.40;29.80;;;1.30;94.10;;;;;;5102615;28;20063;-81
2023/01/20 12:17:55;;;;;;;50.88;48.25;;;1.40;94.20;;;;;;5081038;28;20036;-82
2023/01/20 12:20:46;;;;;;;46.35;43.95;;;1.40;94.70;;;;;;5099914;28;20044;-82
2023/01/20 12:23:46;;;;;;;47.65;44.92;;;1.50;94.70;;;;;;5099243;28;20411;-81
2023/01/20 12:26:17;;;;;;;41.92;38.70;;;1.50;94.10;;;;;;5089399;28;20108;-82
2023/01/20 12:29:10;;;;;;;51.78;48.33;;;1.50;94.40;;;;;;5069664;28;20052;-82
2023/01/20 12:31:36;;;;;;;53.55;50.42;;;1.50;94.70;;;;;;5094402;28;20043;-82
2023/01/20 12:34:04;;;;;;;54.67;51.90;;;1.30;96.00;;;;;;5101513;28;20040;-82
2023/01/20 12:36:42;;;;;;;56.72;53.63;;;1.30;98.60;;;;;;5094387;28;20038;-82
2023/01/20 12:39:10;;;;;;;52.60;49.53;;;1.30;98.90;;;;;;5100126;28;20034;-83
2023/01/20 12:41:48;;;;;;;46.00;43.38;;;1.30;96.50;;;;;;5100494;28;20080;-82
2023/01/20 12:44:32;;;;;;;41.97;39.92;;;1.30;98.80;;;;;;5112806;28;20384;-82
2023/01/20 12:47:13;;;;;;;42.13;39.67;;;1.40;99.40;;;;;;5104828;28;20029;-82
2023/01/20 12:50:11;;;;;;;42.08;39.38;;;1.50;99.90;;;;;;5095496;28;20051;-82
2023/01/20 12:53:18;;;;;;;35.10;33.05;;;1.40;96.70;;;;;;5086520;28;20092;-82
2023/01/20 12:56:03;;;;;;;37.70;35.00;;;1.30;99.40;;;;;;5072696;28;20029;-82